Buoy 44893

sailwx.info

Track history (hours):
 
Tides and Currents Weather Stations Pressure Air Temp Water Temp Dewpoint Dewpoint Depression Visibility Wind Speed Wind Dir Waves Ship Positions

Drifting buoy 44893

Last reported at 2017-Dec-11 15:45 UTC. Time now 2017-Dec-12 14:24 UTC.
Position N 34°13' W 064°51'.

Water temperature 22.5 ° C

Date/timePositionNaut miles runAvg speedWind from/ knotsBaromVisibWave heightAir tempDewpointWater temp
2017-Dec-11 15:45N 34°13' W 064°51'0 2.0 22.5
2017-Dec-11 15:30N 34°13' W 064°52'1 0.8 22.5
2017-Dec-11 14:45N 34°13' W 064°52'0 0.0 22.4
2017-Dec-11 14:30N 34°13' W 064°52'1 2.3 22.4
2017-Dec-11 14:00N 34°13' W 064°53'1 4.6 22.4
2017-Dec-11 13:45N 34°13' W 064°54'1 0.8 22.4
2017-Dec-11 13:00N 34°13' W 064°54'0 0.0 22.4
2017-Dec-11 12:00N 34°13' W 064°54'2 2.1 22.4
2017-Dec-11 11:15N 34°12' W 064°56'1 0.8 22.4
2017-Dec-11 10:30N 34°13' W 064°56'0 0.0 22.4
2017-Dec-11 10:15N 34°13' W 064°56'1 3.1 22.4
2017-Dec-11 10:00N 34°12' W 064°56'0 0.0 22.4
2017-Dec-11 09:00N 34°12' W 064°56'415.9 22.4
2017-Dec-11 08:45N 34°12' W 065°01'0 0.0 22.4
2017-Dec-11 08:30N 34°12' W 065°01'0 0.0 22.4
2017-Dec-11 08:15N 34°12' W 065°01'0 0.0 22.3
2017-Dec-11 06:45N 34°12' W 065°01'0 0.0 22.3
2017-Dec-11 06:30N 34°12' W 065°01'0 0.0 22.3
2017-Dec-11 02:30N 34°12' W 065°01'1 2.4 22.4
2017-Dec-11 02:15N 34°13' W 065°01'0 0.0 22.4
2017-Dec-11 01:45N 34°13' W 065°01'1 2.4 22.4
2017-Dec-11 01:30N 34°13' W 065°01'0 0.7 22.4
2017-Dec-11 00:45N 34°13' W 065°02'0 2.0 22.4
2017-Dec-11 00:30N 34°13' W 065°01'2 3.2 22.4
2017-Dec-11 00:00N 34°14' W 065°03'1 3.1 22.4
2017-Dec-10 23:45N 34°13' W 065°02'1 2.4 22.4
2017-Dec-10 23:30N 34°14' W 065°02'0 0.0 22.4
2017-Dec-10 23:15N 34°14' W 065°02'0 2.0 22.4
2017-Dec-10 23:00N 34°14' W 065°03'1 2.4 22.4
2017-Dec-10 22:45N 34°14' W 065°03'0 0.0 22.4
2017-Dec-10 22:00N 34°14' W 065°03'1 4.0 22.4
2017-Dec-10 21:45N 34°14' W 065°04'2 6.2 22.4
2017-Dec-10 21:30N 34°16' W 065°05'0 0.0 22.4
2017-Dec-10 20:30N 34°16' W 065°05'0 0.0 22.4
2017-Dec-10 20:15N 34°16' W 065°05'0 2.0 22.4
2017-Dec-10 20:00N 34°16' W 065°05'311.0 22.4
2017-Dec-10 19:45N 34°17' W 065°08'3 2.0 22.4
2017-Dec-10 18:15N 34°17' W 065°11'0 0.0 22.4
2017-Dec-10 16:00N 34°17' W 065°11'1 1.0 22.4
2017-Dec-10 15:00N 34°17' W 065°13'1 1.7 22.5
2017-Dec-10 14:15N 34°16' W 065°13'0 0.0 22.5
2017-Dec-10 13:30N 34°16' W 065°13'0 0.0 22.5
2017-Dec-10 13:15N 34°16' W 065°13'1 4.0 22.5
2017-Dec-10 13:00N 34°16' W 065°14'0 0.0 22.5
2017-Dec-10 12:30N 34°16' W 065°14'0 0.0 22.5
2017-Dec-10 12:15N 34°16' W 065°14'1 1.0 22.5
2017-Dec-10 11:30N 34°15' W 065°15'1 3.1 22.5
2017-Dec-10 11:15N 34°14' W 065°16'0 0.0 22.5
2017-Dec-10 11:00N 34°14' W 065°16'0 0.0 22.5
2017-Dec-10 10:45N 34°14' W 065°16'1 2.3 22.5
2017-Dec-10 10:15N 34°14' W 065°17'1 1.0 22.5
2017-Dec-10 09:30N 34°13' W 065°17'0 0.0 22.5
2017-Dec-10 09:15N 34°13' W 065°17'2 2.7 22.5
2017-Dec-10 08:30N 34°11' W 065°19'0 0.0 22.5
2017-Dec-10 07:00N 34°11' W 065°19'518.6 22.5
2017-Dec-10 06:45N 34°09' W 065°23'0 0.0 22.5
2017-Dec-10 02:45N 34°09' W 065°23'0 0.0 22.6
2017-Dec-10 02:30N 34°09' W 065°23'0 0.0 22.6
2017-Dec-10 02:00N 34°09' W 065°23'0 0.0 22.6
2017-Dec-10 01:45N 34°09' W 065°23'1 1.3 22.6
2017-Dec-10 01:00N 34°09' W 065°25'0 0.0 22.6
2017-Dec-10 00:45N 34°09' W 065°25'1 2.0 22.6
2017-Dec-10 00:15N 34°09' W 065°26'1 4.6 22.6
2017-Dec-10 00:00N 34°08' W 065°27'0 0.0 22.6
2017-Dec-09 23:45N 34°08' W 065°27'0 0.0 22.6
2017-Dec-09 23:15N 34°08' W 065°27'1 2.4 22.6
2017-Dec-09 23:00N 34°09' W 065°27'0 0.0 22.6
2017-Dec-09 22:30N 34°09' W 065°27'0 2.0 22.6
2017-Dec-09 22:15N 34°09' W 065°26'0 0.0 22.6
2017-Dec-09 22:00N 34°09' W 065°26'2 4.1 22.6
2017-Dec-09 21:30N 34°10' W 065°29'0 0.0 22.6
2017-Dec-09 21:15N 34°10' W 065°29'0 0.0 22.7
2017-Dec-09 20:45N 34°10' W 065°29'0 0.0 22.7
2017-Dec-09 20:15N 34°10' W 065°29'1 6.0 22.7
2017-Dec-09 20:00N 34°10' W 065°31'3 2.0 22.7
2017-Dec-09 18:30N 34°10' W 065°34'310.2 22.7
2017-Dec-09 18:15N 34°10' W 065°31'3 1.1 22.7
2017-Dec-09 15:30N 34°10' W 065°35'0 0.0 22.6
2017-Dec-09 15:15N 34°10' W 065°35'0 0.0 22.6
2017-Dec-09 14:45N 34°10' W 065°35'0 2.0 22.6
2017-Dec-09 14:30N 34°10' W 065°35'0 0.0 22.6
2017-Dec-09 13:45N 34°10' W 065°35'0 0.0 22.6
2017-Dec-09 13:30N 34°10' W 065°35'0 2.0 22.6
2017-Dec-09 13:15N 34°10' W 065°36'0 0.0 22.6
2017-Dec-09 13:00N 34°10' W 065°36'2 8.3 22.6
2017-Dec-09 12:45N 34°11' W 065°38'0 0.0 22.6
2017-Dec-09 11:45N 34°11' W 065°38'1 3.1 22.6
2017-Dec-09 11:30N 34°10' W 065°38'0 0.0 22.6
2017-Dec-09 11:15N 34°10' W 065°38'0 0.0 22.6
2017-Dec-09 11:00N 34°10' W 065°38'2 2.1 22.6
2017-Dec-09 10:15N 34°11' W 065°40'0 0.0 22.6
2017-Dec-09 10:00N 34°11' W 065°40'0 0.0 22.6
2017-Dec-09 09:45N 34°11' W 065°40'0 0.0 22.6
2017-Dec-09 09:30N 34°11' W 065°40'0 0.0 22.7
2017-Dec-09 08:45N 34°11' W 065°40'1 6.0 22.6
2017-Dec-09 08:30N 34°11' W 065°41'0 0.0 22.6
2017-Dec-09 08:15N 34°11' W 065°41'3 2.8 22.6
2017-Dec-09 07:00N 34°11' W 065°46'0 0.0 22.6
2017-Dec-09 03:00N 34°11' W 065°46'1 1.3 22.6
2017-Dec-09 02:15N 34°11' W 065°47'0 0.0 22.6
2017-Dec-09 01:30N 34°11' W 065°47'0 0.0 22.6
2017-Dec-09 01:15N 34°11' W 065°47'0 0.0 22.6
2017-Dec-09 01:00N 34°11' W 065°47'0 0.0 22.6
2017-Dec-09 00:45N 34°11' W 065°47'311.0 22.6
2017-Dec-09 00:30N 34°12' W 065°50'0 0.0 22.6
2017-Dec-09 00:15N 34°12' W 065°50'0 0.0 22.6
2017-Dec-08 23:45N 34°12' W 065°50'0 0.0 22.7
2017-Dec-08 23:30N 34°12' W 065°50'0 0.0 22.7
2017-Dec-08 23:15N 34°12' W 065°50'0 0.0 22.7
2017-Dec-08 23:00N 34°12' W 065°50'0 0.0 22.7
2017-Dec-08 22:45N 34°12' W 065°50'0 0.0 22.7
2017-Dec-08 22:30N 34°12' W 065°50'1 0.6 22.7
2017-Dec-08 21:30N 34°13' W 065°50'0 0.0 22.7
2017-Dec-08 21:15N 34°13' W 065°50'1 4.0 22.7
2017-Dec-08 21:00N 34°13' W 065°51'0 0.0 22.7
2017-Dec-08 20:30N 34°13' W 065°51'1 4.6 22.7
2017-Dec-08 20:15N 34°13' W 065°52'0 0.0 22.7
2017-Dec-08 18:45N 34°13' W 065°52'416.9 22.7
2017-Dec-08 18:30N 34°16' W 065°56'1 0.4 22.7
2017-Dec-08 15:45N 34°14' W 065°56'0 0.0 22.7
2017-Dec-08 15:00N 34°14' W 065°56'0 0.0 22.7
2017-Dec-08 14:45N 34°14' W 065°56'2 2.8 22.7
2017-Dec-08 14:00N 34°15' W 065°59'0 0.0 22.7
2017-Dec-08 13:15N 34°15' W 065°59'0 0.0 22.7
2017-Dec-08 12:15N 34°15' W 065°59'0 0.0 22.7
2017-Dec-08 12:00N 34°15' W 065°59'1 3.1 22.7
2017-Dec-08 11:45N 34°16' W 065°58'0 0.0 22.7
2017-Dec-08 11:30N 34°16' W 065°58'1 0.8 22.7
2017-Dec-08 10:30N 34°16' W 065°59'0 0.0 22.7
2017-Dec-08 10:15N 34°16' W 065°59'1 3.1 22.7
2017-Dec-08 10:00N 34°17' W 065°59'0 0.0 22.7
2017-Dec-08 09:45N 34°17' W 065°59'0 0.0 22.6
2017-Dec-08 09:00N 34°17' W 065°59'2 6.4 22.6
2017-Dec-08 08:45N 34°17' W 066°01'1 1.0 22.6
2017-Dec-08 07:15N 34°17' W 065°59'0 0.0 22.7
2017-Dec-08 07:00N 34°17' W 065°59'5 1.1 22.7
2017-Dec-08 02:45N 34°19' W 066°05'0 0.0 22.6
2017-Dec-08 02:30N 34°19' W 066°05'1 1.3 22.6
2017-Dec-08 01:45N 34°19' W 066°06'1 2.4 22.6
2017-Dec-08 01:30N 34°19' W 066°06'0 0.0 22.6
2017-Dec-08 01:15N 34°19' W 066°06'1 3.1 22.6
2017-Dec-08 01:00N 34°20' W 066°07'0 0.0 22.6
2017-Dec-08 00:45N 34°20' W 066°07'1 2.0 22.6
2017-Dec-08 00:00N 34°20' W 066°08'0 0.0 22.6
2017-Dec-07 23:30N 34°20' W 066°08'1 3.1 22.6
2017-Dec-07 23:15N 34°20' W 066°08'0 0.0 22.6
2017-Dec-07 23:00N 34°20' W 066°08'2 1.6 22.6
2017-Dec-07 21:45N 34°20' W 066°10'1 4.6 22.7
2017-Dec-07 21:30N 34°21' W 066°11'0 0.0 22.7
2017-Dec-07 20:30N 34°21' W 066°11'0 0.0 22.7
2017-Dec-07 20:15N 34°21' W 066°11'1 1.2 22.7
2017-Dec-07 19:00N 34°21' W 066°13'414.7 22.7
2017-Dec-07 18:45N 34°22' W 066°17'0 0.0 22.7
2017-Dec-07 16:00N 34°22' W 066°17'1 1.0 22.7
2017-Dec-07 15:15N 34°23' W 066°18'1 1.0 22.7
2017-Dec-07 14:30N 34°23' W 066°19'0 0.0 22.7
2017-Dec-07 14:15N 34°23' W 066°19'0 0.0 22.8
2017-Dec-07 13:45N 34°23' W 066°19'0 0.0 22.8
2017-Dec-07 13:30N 34°23' W 066°19'1 1.3 22.8
2017-Dec-07 12:45N 34°23' W 066°20'1 1.3 22.8
2017-Dec-07 12:00N 34°23' W 066°21'1 0.6 22.7
2017-Dec-07 11:00N 34°24' W 066°21'0 0.0 22.7
2017-Dec-07 10:45N 34°24' W 066°21'0 0.0 22.8
2017-Dec-07 10:30N 34°24' W 066°21'1 3.1 22.8
2017-Dec-07 10:15N 34°23' W 066°22'1 0.6 22.8
2017-Dec-07 09:15N 34°24' W 066°22'1 4.0 22.7
2017-Dec-07 09:00N 34°24' W 066°23'0 0.0 22.7
2017-Dec-07 07:30N 34°24' W 066°23'415.8 22.8
2017-Dec-07 07:15N 34°24' W 066°28'0 0.0 22.8
2017-Dec-07 03:00N 34°24' W 066°28'1 0.8 22.8
2017-Dec-07 02:00N 34°25' W 066°28'0 0.0 22.8
2017-Dec-07 01:15N 34°25' W 066°28'0 0.0 22.8
2017-Dec-07 00:30N 34°25' W 066°28'0 0.0 22.8
2017-Dec-07 00:15N 34°25' W 066°28'0 1.0 22.8
2017-Dec-06 23:45N 34°25' W 066°29'2 7.6 22.8
2017-Dec-06 23:30N 34°23' W 066°31'0 0.0 22.8
2017-Dec-06 22:15N 34°23' W 066°31'1 4.6 22.8
2017-Dec-06 22:00N 34°23' W 066°32'0 0.0 22.8
2017-Dec-06 21:45N 34°23' W 066°32'1 1.2 22.8
2017-Dec-06 20:45N 34°22' W 066°33'0 0.0 22.8
2017-Dec-06 20:30N 34°22' W 066°33'0 0.0 22.8
2017-Dec-06 19:00N 34°22' W 066°33'1 0.3 22.9
2017-Dec-06 15:45N 34°22' W 066°34'1 3.1 22.9
2017-Dec-06 15:30N 34°22' W 066°35'0 0.0 22.9
2017-Dec-06 14:45N 34°22' W 066°35'1 1.5 22.9
2017-Dec-06 14:00N 34°22' W 066°34'1 3.1 22.8
2017-Dec-06 13:45N 34°22' W 066°34'0 0.0 22.8
2017-Dec-06 13:00N 34°22' W 066°34'0 1.0 22.7
2017-Dec-06 12:30N 34°22' W 066°35'1 4.6 22.8
2017-Dec-06 12:15N 34°21' W 066°36'0 0.0 22.8
2017-Dec-06 12:00N 34°21' W 066°36'0 0.0 22.8
2017-Dec-06 11:30N 34°21' W 066°36'1 0.8 22.8
2017-Dec-06 10:45N 34°22' W 066°36'0 2.0 22.8
2017-Dec-06 10:30N 34°22' W 066°37'0 0.0 22.9
2017-Dec-06 10:00N 34°22' W 066°37'0 2.0 22.9
2017-Dec-06 09:45N 34°22' W 066°37'1 2.4 22.9
2017-Dec-06 09:15N 34°23' W 066°37'0 0.0 22.9
2017-Dec-06 08:15N 34°23' W 066°37'0 0.0 22.9
2017-Dec-06 08:00N 34°23' W 066°37'1 4.6 22.9
2017-Dec-06 07:45N 34°22' W 066°38'0 0.0 22.9
2017-Dec-06 07:30N 34°22' W 066°38'2 0.5 22.9
2017-Dec-06 03:15N 34°22' W 066°41'0 0.0 22.9
2017-Dec-06 02:30N 34°22' W 066°41'1 3.1 22.9
2017-Dec-06 02:15N 34°23' W 066°40'0 0.0 22.9
2017-Dec-06 01:45N 34°23' W 066°40'0 0.0 22.9
2017-Dec-06 01:30N 34°23' W 066°40'1 0.8 22.9
2017-Dec-06 00:45N 34°22' W 066°40'1 3.1 22.9
2017-Dec-06 00:30N 34°23' W 066°41'0 0.0 22.9
2017-Dec-06 00:15N 34°23' W 066°41'0 0.0 22.9
2017-Dec-06 00:00N 34°23' W 066°41'1 2.4 22.9
2017-Dec-05 23:45N 34°23' W 066°41'0 0.0 22.9
2017-Dec-05 22:45N 34°23' W 066°41'0 0.0 22.9
2017-Dec-05 22:30N 34°23' W 066°41'1 4.0 22.9
2017-Dec-05 22:15N 34°23' W 066°40'0 0.0 22.9
2017-Dec-05 22:00N 34°23' W 066°40'0 0.0 22.9
2017-Dec-05 21:00N 34°23' W 066°40'2 6.2 22.9
2017-Dec-05 20:45N 34°25' W 066°41'0 0.3 22.9
2017-Dec-05 19:15N 34°25' W 066°40'312.6 22.9
2017-Dec-05 19:00N 34°28' W 066°41'1 0.3 22.9
2017-Dec-05 16:00N 34°28' W 066°42'0 0.0 22.9
2017-Dec-05 15:00N 34°28' W 066°42'0 0.0 22.9
2017-Dec-05 14:30N 34°28' W 066°42'0 0.0 22.9
2017-Dec-05 14:00N 34°28' W 066°42'1 1.6 22.9
2017-Dec-05 13:30N 34°29' W 066°41'0 0.0 22.9
2017-Dec-05 13:15N 34°29' W 066°41'0 0.0 22.9
2017-Dec-05 12:45N 34°29' W 066°41'1 5.2 22.9
2017-Dec-05 12:30N 34°30' W 066°42'0 0.0 22.9
2017-Dec-05 12:15N 34°30' W 066°42'0 0.0 22.9
2017-Dec-05 11:15N 34°30' W 066°42'0 0.0 22.9
2017-Dec-05 11:00N 34°30' W 066°42'0 2.0 22.9
2017-Dec-05 10:45N 34°30' W 066°43'0 0.0 22.9
2017-Dec-05 10:30N 34°30' W 066°43'1 4.8 22.9
2017-Dec-05 10:15N 34°31' W 066°43'0 0.7 22.9
2017-Dec-05 09:30N 34°31' W 066°42'0 0.0 22.9
2017-Dec-05 09:15N 34°31' W 066°42'0 0.0 22.9
2017-Dec-05 08:45N 34°31' W 066°42'1 4.6 22.9
2017-Dec-05 08:30N 34°32' W 066°43'0 0.0 22.9
2017-Dec-05 08:00N 34°32' W 066°43'311.3 22.9
2017-Dec-05 07:45N 34°34' W 066°45'1 0.2 22.9
2017-Dec-05 02:45N 34°35' W 066°44'1 0.8 22.9
2017-Dec-05 02:00N 34°35' W 066°44'0 0.0 22.9
2017-Dec-05 01:45N 34°35' W 066°44'0 0.0 22.9
2017-Dec-05 01:15N 34°35' W 066°44'1 4.8 23.0
2017-Dec-05 01:00N 34°37' W 066°44'0 0.0 23.0
2017-Dec-05 00:45N 34°37' W 066°44'0 0.0 23.0
2017-Dec-05 00:30N 34°37' W 066°44'1 2.4 23.0
2017-Dec-05 00:00N 34°38' W 066°44'0 0.0 23.0
2017-Dec-04 23:30N 34°38' W 066°44'0 2.0 23.0
2017-Dec-04 23:15N 34°38' W 066°44'0 2.0 23.0
2017-Dec-04 23:00N 34°38' W 066°44'0 2.0 23.0
2017-Dec-04 22:45N 34°38' W 066°44'1 4.6 23.0
2017-Dec-04 22:30N 34°38' W 066°45'1 3.1 23.0
2017-Dec-04 22:15N 34°39' W 066°44'0 0.0 23.0
2017-Dec-04 21:30N 34°39' W 066°44'0 0.0 23.0
2017-Dec-04 21:15N 34°39' W 066°44'0 0.0 23.0
2017-Dec-04 21:00N 34°39' W 066°44'2 1.5 23.0
2017-Dec-04 19:30N 34°40' W 066°47'312.2 22.9
2017-Dec-04 19:15N 34°43' W 066°47'0 0.0 22.9
2017-Dec-04 17:45N 34°43' W 066°47'1 0.3 22.8
2017-Dec-04 15:30N 34°44' W 066°47'0 0.0 22.8
2017-Dec-04 15:15N 34°44' W 066°47'0 0.0 22.8
2017-Dec-04 14:45N 34°44' W 066°47'0 0.0 22.8
2017-Dec-04 14:30N 34°44' W 066°47'2 2.1 22.8
2017-Dec-04 13:45N 34°45' W 066°48'1 1.0 22.7
2017-Dec-04 13:00N 34°46' W 066°47'0 0.0 22.8
2017-Dec-04 12:45N 34°46' W 066°47'1 5.2 22.8
2017-Dec-04 12:30N 34°47' W 066°48'0 0.0 22.8
2017-Dec-04 11:45N 34°47' W 066°48'0 0.0 22.8
2017-Dec-04 11:30N 34°47' W 066°48'1 2.0 22.8
2017-Dec-04 11:00N 34°47' W 066°49'1 5.2 22.8
2017-Dec-04 10:45N 34°48' W 066°50'1 1.0 22.8
2017-Dec-04 10:00N 34°49' W 066°50'0 0.0 22.8
2017-Dec-04 09:45N 34°49' W 066°50'2 8.2 22.8
2017-Dec-04 09:30N 34°50' W 066°52'2 9.3 22.8
2017-Dec-04 09:15N 34°49' W 066°50'2 9.3 22.8
2017-Dec-04 09:00N 34°50' W 066°52'4 3.9 22.8
2017-Dec-04 08:00N 34°53' W 066°55'0 0.0 22.8
2017-Dec-04 07:45N 34°53' W 066°55'0 0.0 22.8
2017-Dec-04 03:00N 34°53' W 066°55'1 1.6 22.9
2017-Dec-04 02:30N 34°54' W 066°55'0 0.0 22.9
2017-Dec-04 02:15N 34°54' W 066°55'0 0.0 22.9
2017-Dec-04 01:30N 34°54' W 066°55'0 0.0 22.8
2017-Dec-04 01:15N 34°54' W 066°55'0 0.0 22.8
2017-Dec-04 00:45N 34°54' W 066°55'0 0.0 22.8
2017-Dec-04 00:30N 34°54' W 066°55'0 0.0 22.8
2017-Dec-04 00:15N 34°54' W 066°55'1 5.2 22.8
2017-Dec-04 00:00N 34°55' W 066°56'1 5.2 22.8
2017-Dec-03 23:45N 34°54' W 066°55'0 0.0 22.9
2017-Dec-03 23:15N 34°54' W 066°55'0 0.7 22.9
2017-Dec-03 22:30N 34°54' W 066°56'0 0.0 22.9
2017-Dec-03 22:00N 34°54' W 066°56'0 0.0 22.9
2017-Dec-03 21:45N 34°54' W 066°56'1 1.2 22.9
2017-Dec-03 21:15N 34°55' W 066°56'0 0.0 22.9
2017-Dec-03 19:45N 34°55' W 066°56'1 5.2 22.9
2017-Dec-03 19:30N 34°56' W 066°56'0 0.0 22.9
2017-Dec-03 18:00N 34°56' W 066°56'2 7.6 22.9
2017-Dec-03 17:45N 34°57' W 066°58'1 0.4 22.9
2017-Dec-03 15:45N 34°56' W 066°58'2 2.1 22.8
2017-Dec-03 15:00N 34°57' W 066°59'0 0.0 22.8
2017-Dec-03 14:15N 34°57' W 066°59'1 2.4 22.8
2017-Dec-03 14:00N 34°58' W 066°59'0 0.0 22.8
2017-Dec-03 13:30N 34°58' W 066°59'0 0.0 22.8
2017-Dec-03 13:15N 34°58' W 066°59'0 0.0 22.8
2017-Dec-03 13:00N 34°58' W 066°59'1 3.1 22.8
2017-Dec-03 12:45N 34°58' W 067°00'0 0.0 22.8
2017-Dec-03 12:30N 34°58' W 067°00'0 0.0 22.8
2017-Dec-03 12:15N 34°58' W 067°00'0 0.0 22.8
2017-Dec-03 12:00N 34°58' W 067°00'0 0.0 22.8
2017-Dec-03 11:30N 34°58' W 067°00'0 2.0 22.8
2017-Dec-03 11:15N 34°58' W 067°01'1 3.1 22.8
2017-Dec-03 11:00N 34°59' W 067°01'0 0.0 22.8
2017-Dec-03 10:30N 34°59' W 067°01'0 0.0 22.8
2017-Dec-03 10:15N 34°59' W 067°01'0 0.0 22.8
2017-Dec-03 10:00N 34°59' W 067°01'1 3.1 22.8
2017-Dec-03 09:45N 34°59' W 067°02'0 0.0 22.8
2017-Dec-03 09:30N 34°59' W 067°02'1 0.6 22.8
2017-Dec-03 08:15N 35°00' W 067°02'0 2.0 22.8
2017-Dec-03 08:00N 35°00' W 067°03'0 0.0 22.8
2017-Dec-03 02:45N 35°00' W 067°03'0 0.0 22.9
2017-Dec-03 02:30N 35°00' W 067°03'0 0.7 22.9
2017-Dec-03 01:45N 35°00' W 067°04'1 0.8 22.9
2017-Dec-03 01:00N 35°01' W 067°04'0 0.0 22.9
2017-Dec-03 00:30N 35°01' W 067°04'0 0.0 22.9
2017-Dec-03 00:15N 35°01' W 067°04'0 0.0 22.9
2017-Dec-03 00:00N 35°01' W 067°04'0 0.0 22.9
2017-Dec-02 23:45N 35°01' W 067°04'1 0.6 22.9
2017-Dec-02 22:45N 35°01' W 067°04'0 0.0 22.8
2017-Dec-02 22:30N 35°01' W 067°04'0 0.0 22.8
2017-Dec-02 22:15N 35°01' W 067°04'0 0.0 22.8
2017-Dec-02 22:00N 35°01' W 067°04'1 0.9 22.8
2017-Dec-02 20:30N 35°02' W 067°04'0 0.0 22.9
2017-Dec-02 20:15N 35°02' W 067°04'1 1.6 22.9
2017-Dec-02 19:45N 35°03' W 067°05'0 0.0 22.9
2017-Dec-02 18:15N 35°03' W 067°05'2 9.2 22.9
2017-Dec-02 18:00N 35°04' W 067°07'0 0.0 22.9
2017-Dec-02 16:00N 35°04' W 067°07'0 0.0 22.9
2017-Dec-02 15:30N 35°04' W 067°07'1 3.9 22.9
2017-Dec-02 15:15N 35°04' W 067°08'0 0.0 22.9
2017-Dec-02 14:30N 35°04' W 067°08'0 0.0 22.9
2017-Dec-02 14:15N 35°04' W 067°08'0 1.0 22.9
2017-Dec-02 13:45N 35°04' W 067°09'0 0.0 22.9
2017-Dec-02 13:30N 35°04' W 067°09'0 1.0 22.9
2017-Dec-02 13:00N 35°04' W 067°10'0 0.0 22.9
2017-Dec-02 12:45N 35°04' W 067°10'0 0.0 22.9
2017-Dec-02 12:30N 35°04' W 067°10'1 3.1 22.9
2017-Dec-02 12:15N 35°05' W 067°10'0 0.0 22.9
2017-Dec-02 11:30N 35°05' W 067°10'0 0.0 22.8
2017-Dec-02 11:15N 35°05' W 067°10'1 1.6 22.8
2017-Dec-02 10:45N 35°05' W 067°11'0 0.0 22.8
2017-Dec-02 10:15N 35°05' W 067°11'1 5.2 22.8
2017-Dec-02 10:00N 35°07' W 067°10'1 0.7 22.8
2017-Dec-02 08:30N 35°07' W 067°11'2 9.6 22.9
2017-Dec-02 08:15N 35°09' W 067°11'0 0.0 22.9
2017-Dec-02 06:45N 35°09' W 067°11'2 0.6 23.1
2017-Dec-02 03:00N 35°10' W 067°14'0 0.0 22.9
2017-Dec-02 02:15N 35°10' W 067°14'1 2.4 22.9
2017-Dec-02 02:00N 35°11' W 067°14'0 0.0 22.9
2017-Dec-02 01:30N 35°11' W 067°14'1 3.1 23.1
2017-Dec-02 01:15N 35°11' W 067°14'1 1.2 23.1
2017-Dec-02 00:45N 35°12' W 067°14'1 3.1 23.1
2017-Dec-02 00:30N 35°11' W 067°14'1 5.2 23.1
2017-Dec-02 00:15N 35°13' W 067°14'0 0.0 23.1
2017-Dec-02 00:00N 35°13' W 067°14'0 0.0 23.1
2017-Dec-01 23:45N 35°13' W 067°14'0 0.0 23.1
2017-Dec-01 23:00N 35°13' W 067°14'0 0.0 23.0
2017-Dec-01 22:45N 35°13' W 067°14'0 0.0 23.0
2017-Dec-01 22:30N 35°13' W 067°14'1 5.2 23.0
2017-Dec-01 22:15N 35°14' W 067°14'0 0.5 23.1
2017-Dec-01 21:15N 35°14' W 067°14'0 0.0 23.1
2017-Dec-01 20:45N 35°14' W 067°14'1 1.0 23.1
2017-Dec-01 20:00N 35°13' W 067°15'1 4.8 23.1
2017-Dec-01 19:45N 35°14' W 067°15'0 0.0 23.0
2017-Dec-01 18:15N 35°14' W 067°15'0 0.0 23.1
2017-Dec-01 15:45N 35°14' W 067°15'   22.9
Track history (hours):
 
Tides and Currents Weather Stations Pressure Air Temp Water Temp Dewpoint Dewpoint Depression Visibility Wind Speed Wind Dir Waves Ship Positions

Drifting buoy 44893

Last reported at 2017-Dec-11 15:45 UTC. Time now 2017-Dec-12 14:24 UTC.
Position N 34°13' W 064°51'.

Water temperature 22.5 ° C

Date/timePositionNaut miles runAvg speedWind from/ knotsBaromVisibWave heightAir tempDewpointWater temp
2017-Dec-11 15:45N 34°13' W 064°51'0 2.0 22.5
2017-Dec-11 15:30N 34°13' W 064°52'1 0.8 22.5
2017-Dec-11 14:45N 34°13' W 064°52'0 0.0 22.4
2017-Dec-11 14:30N 34°13' W 064°52'1 2.3 22.4
2017-Dec-11 14:00N 34°13' W 064°53'1 4.6 22.4
2017-Dec-11 13:45N 34°13' W 064°54'1 0.8 22.4
2017-Dec-11 13:00N 34°13' W 064°54'0 0.0 22.4
2017-Dec-11 12:00N 34°13' W 064°54'2 2.1 22.4
2017-Dec-11 11:15N 34°12' W 064°56'1 0.8 22.4
2017-Dec-11 10:30N 34°13' W 064°56'0 0.0 22.4
2017-Dec-11 10:15N 34°13' W 064°56'1 3.1 22.4
2017-Dec-11 10:00N 34°12' W 064°56'0 0.0 22.4
2017-Dec-11 09:00N 34°12' W 064°56'415.9 22.4
2017-Dec-11 08:45N 34°12' W 065°01'0 0.0 22.4
2017-Dec-11 08:30N 34°12' W 065°01'0 0.0 22.4
2017-Dec-11 08:15N 34°12' W 065°01'0 0.0 22.3
2017-Dec-11 06:45N 34°12' W 065°01'0 0.0 22.3
2017-Dec-11 06:30N 34°12' W 065°01'0 0.0 22.3
2017-Dec-11 02:30N 34°12' W 065°01'1 2.4 22.4
2017-Dec-11 02:15N 34°13' W 065°01'0 0.0 22.4
2017-Dec-11 01:45N 34°13' W 065°01'1 2.4 22.4
2017-Dec-11 01:30N 34°13' W 065°01'0 0.7 22.4
2017-Dec-11 00:45N 34°13' W 065°02'0 2.0 22.4
2017-Dec-11 00:30N 34°13' W 065°01'2 3.2 22.4
2017-Dec-11 00:00N 34°14' W 065°03'1 3.1 22.4
2017-Dec-10 23:45N 34°13' W 065°02'1 2.4 22.4
2017-Dec-10 23:30N 34°14' W 065°02'0 0.0 22.4
2017-Dec-10 23:15N 34°14' W 065°02'0 2.0 22.4
2017-Dec-10 23:00N 34°14' W 065°03'1 2.4 22.4
2017-Dec-10 22:45N 34°14' W 065°03'0 0.0 22.4
2017-Dec-10 22:00N 34°14' W 065°03'1 4.0 22.4
2017-Dec-10 21:45N 34°14' W 065°04'2 6.2 22.4
2017-Dec-10 21:30N 34°16' W 065°05'0 0.0 22.4
2017-Dec-10 20:30N 34°16' W 065°05'0 0.0 22.4
2017-Dec-10 20:15N 34°16' W 065°05'0 2.0 22.4
2017-Dec-10 20:00N 34°16' W 065°05'311.0 22.4
2017-Dec-10 19:45N 34°17' W 065°08'3 2.0 22.4
2017-Dec-10 18:15N 34°17' W 065°11'0 0.0 22.4
2017-Dec-10 16:00N 34°17' W 065°11'1 1.0 22.4
2017-Dec-10 15:00N 34°17' W 065°13'1 1.7 22.5
2017-Dec-10 14:15N 34°16' W 065°13'0 0.0 22.5
2017-Dec-10 13:30N 34°16' W 065°13'0 0.0 22.5
2017-Dec-10 13:15N 34°16' W 065°13'1 4.0 22.5
2017-Dec-10 13:00N 34°16' W 065°14'0 0.0 22.5
2017-Dec-10 12:30N 34°16' W 065°14'0 0.0 22.5
2017-Dec-10 12:15N 34°16' W 065°14'1 1.0 22.5
2017-Dec-10 11:30N 34°15' W 065°15'1 3.1 22.5
2017-Dec-10 11:15N 34°14' W 065°16'0 0.0 22.5
2017-Dec-10 11:00N 34°14' W 065°16'0 0.0 22.5
2017-Dec-10 10:45N 34°14' W 065°16'1 2.3 22.5
2017-Dec-10 10:15N 34°14' W 065°17'1 1.0 22.5
2017-Dec-10 09:30N 34°13' W 065°17'0 0.0 22.5
2017-Dec-10 09:15N 34°13' W 065°17'2 2.7 22.5
2017-Dec-10 08:30N 34°11' W 065°19'0 0.0 22.5
2017-Dec-10 07:00N 34°11' W 065°19'518.6 22.5
2017-Dec-10 06:45N 34°09' W 065°23'0 0.0 22.5
2017-Dec-10 02:45N 34°09' W 065°23'0 0.0 22.6
2017-Dec-10 02:30N 34°09' W 065°23'0 0.0 22.6
2017-Dec-10 02:00N 34°09' W 065°23'0 0.0 22.6
2017-Dec-10 01:45N 34°09' W 065°23'1 1.3 22.6
2017-Dec-10 01:00N 34°09' W 065°25'0 0.0 22.6
2017-Dec-10 00:45N 34°09' W 065°25'1 2.0 22.6
2017-Dec-10 00:15N 34°09' W 065°26'1 4.6 22.6
2017-Dec-10 00:00N 34°08' W 065°27'0 0.0 22.6
2017-Dec-09 23:45N 34°08' W 065°27'0 0.0 22.6
2017-Dec-09 23:15N 34°08' W 065°27'1 2.4 22.6
2017-Dec-09 23:00N 34°09' W 065°27'0 0.0 22.6
2017-Dec-09 22:30N 34°09' W 065°27'0 2.0 22.6
2017-Dec-09 22:15N 34°09' W 065°26'0 0.0 22.6
2017-Dec-09 22:00N 34°09' W 065°26'2 4.1 22.6
2017-Dec-09 21:30N 34°10' W 065°29'0 0.0 22.6
2017-Dec-09 21:15N 34°10' W 065°29'0 0.0 22.7
2017-Dec-09 20:45N 34°10' W 065°29'0 0.0 22.7
2017-Dec-09 20:15N 34°10' W 065°29'1 6.0 22.7
2017-Dec-09 20:00N 34°10' W 065°31'3 2.0 22.7
2017-Dec-09 18:30N 34°10' W 065°34'310.2 22.7
2017-Dec-09 18:15N 34°10' W 065°31'3 1.1 22.7
2017-Dec-09 15:30N 34°10' W 065°35'0 0.0 22.6
2017-Dec-09 15:15N 34°10' W 065°35'0 0.0 22.6
2017-Dec-09 14:45N 34°10' W 065°35'0 2.0 22.6
2017-Dec-09 14:30N 34°10' W 065°35'0 0.0 22.6
2017-Dec-09 13:45N 34°10' W 065°35'0 0.0 22.6
2017-Dec-09 13:30N 34°10' W 065°35'0 2.0 22.6
2017-Dec-09 13:15N 34°10' W 065°36'0 0.0 22.6
2017-Dec-09 13:00N 34°10' W 065°36'2 8.3 22.6
2017-Dec-09 12:45N 34°11' W 065°38'0 0.0 22.6
2017-Dec-09 11:45N 34°11' W 065°38'1 3.1 22.6
2017-Dec-09 11:30N 34°10' W 065°38'0 0.0 22.6
2017-Dec-09 11:15N 34°10' W 065°38'0 0.0 22.6
2017-Dec-09 11:00N 34°10' W 065°38'2 2.1 22.6
2017-Dec-09 10:15N 34°11' W 065°40'0 0.0 22.6
2017-Dec-09 10:00N 34°11' W 065°40'0 0.0 22.6
2017-Dec-09 09:45N 34°11' W 065°40'0 0.0 22.6
2017-Dec-09 09:30N 34°11' W 065°40'0 0.0 22.7
2017-Dec-09 08:45N 34°11' W 065°40'1 6.0 22.6
2017-Dec-09 08:30N 34°11' W 065°41'0 0.0 22.6
2017-Dec-09 08:15N 34°11' W 065°41'3 2.8 22.6
2017-Dec-09 07:00N 34°11' W 065°46'0 0.0 22.6
2017-Dec-09 03:00N 34°11' W 065°46'1 1.3 22.6
2017-Dec-09 02:15N 34°11' W 065°47'0 0.0 22.6
2017-Dec-09 01:30N 34°11' W 065°47'0 0.0 22.6
2017-Dec-09 01:15N 34°11' W 065°47'0 0.0 22.6
2017-Dec-09 01:00N 34°11' W 065°47'0 0.0 22.6
2017-Dec-09 00:45N 34°11' W 065°47'311.0 22.6
2017-Dec-09 00:30N 34°12' W 065°50'0 0.0 22.6
2017-Dec-09 00:15N 34°12' W 065°50'0 0.0 22.6
2017-Dec-08 23:45N 34°12' W 065°50'0 0.0 22.7
2017-Dec-08 23:30N 34°12' W 065°50'0 0.0 22.7
2017-Dec-08 23:15N 34°12' W 065°50'0 0.0 22.7
2017-Dec-08 23:00N 34°12' W 065°50'0 0.0 22.7
2017-Dec-08 22:45N 34°12' W 065°50'0 0.0 22.7
2017-Dec-08 22:30N 34°12' W 065°50'1 0.6 22.7
2017-Dec-08 21:30N 34°13' W 065°50'0 0.0 22.7
2017-Dec-08 21:15N 34°13' W 065°50'1 4.0 22.7
2017-Dec-08 21:00N 34°13' W 065°51'0 0.0 22.7
2017-Dec-08 20:30N 34°13' W 065°51'1 4.6 22.7
2017-Dec-08 20:15N 34°13' W 065°52'0 0.0 22.7
2017-Dec-08 18:45N 34°13' W 065°52'416.9 22.7
2017-Dec-08 18:30N 34°16' W 065°56'1 0.4 22.7
2017-Dec-08 15:45N 34°14' W 065°56'0 0.0 22.7
2017-Dec-08 15:00N 34°14' W 065°56'0 0.0 22.7
2017-Dec-08 14:45N 34°14' W 065°56'2 2.8 22.7
2017-Dec-08 14:00N 34°15' W 065°59'0 0.0 22.7
2017-Dec-08 13:15N 34°15' W 065°59'0 0.0 22.7
2017-Dec-08 12:15N 34°15' W 065°59'0 0.0 22.7
2017-Dec-08 12:00N 34°15' W 065°59'1 3.1 22.7
2017-Dec-08 11:45N 34°16' W 065°58'0 0.0 22.7
2017-Dec-08 11:30N 34°16' W 065°58'1 0.8 22.7
2017-Dec-08 10:30N 34°16' W 065°59'0 0.0 22.7
2017-Dec-08 10:15N 34°16' W 065°59'1 3.1 22.7
2017-Dec-08 10:00N 34°17' W 065°59'0 0.0 22.7
2017-Dec-08 09:45N 34°17' W 065°59'0 0.0 22.6
2017-Dec-08 09:00N 34°17' W 065°59'2 6.4 22.6
2017-Dec-08 08:45N 34°17' W 066°01'1 1.0 22.6
2017-Dec-08 07:15N 34°17' W 065°59'0 0.0 22.7
2017-Dec-08 07:00N 34°17' W 065°59'5 1.1 22.7
2017-Dec-08 02:45N 34°19' W 066°05'0 0.0 22.6
2017-Dec-08 02:30N 34°19' W 066°05'1 1.3 22.6
2017-Dec-08 01:45N 34°19' W 066°06'1 2.4 22.6
2017-Dec-08 01:30N 34°19' W 066°06'0 0.0 22.6
2017-Dec-08 01:15N 34°19' W 066°06'1 3.1 22.6
2017-Dec-08 01:00N 34°20' W 066°07'0 0.0 22.6
2017-Dec-08 00:45N 34°20' W 066°07'1 2.0 22.6
2017-Dec-08 00:00N 34°20' W 066°08'0 0.0 22.6
2017-Dec-07 23:30N 34°20' W 066°08'1 3.1 22.6
2017-Dec-07 23:15N 34°20' W 066°08'0 0.0 22.6
2017-Dec-07 23:00N 34°20' W 066°08'2 1.6 22.6
2017-Dec-07 21:45N 34°20' W 066°10'1 4.6 22.7
2017-Dec-07 21:30N 34°21' W 066°11'0 0.0 22.7
2017-Dec-07 20:30N 34°21' W 066°11'0 0.0 22.7
2017-Dec-07 20:15N 34°21' W 066°11'1 1.2 22.7
2017-Dec-07 19:00N 34°21' W 066°13'414.7 22.7
2017-Dec-07 18:45N 34°22' W 066°17'0 0.0 22.7
2017-Dec-07 16:00N 34°22' W 066°17'1 1.0 22.7
2017-Dec-07 15:15N 34°23' W 066°18'1 1.0 22.7
2017-Dec-07 14:30N 34°23' W 066°19'0 0.0 22.7
2017-Dec-07 14:15N 34°23' W 066°19'0 0.0 22.8
2017-Dec-07 13:45N 34°23' W 066°19'0 0.0 22.8
2017-Dec-07 13:30N 34°23' W 066°19'1 1.3 22.8
2017-Dec-07 12:45N 34°23' W 066°20'1 1.3 22.8
2017-Dec-07 12:00N 34°23' W 066°21'1 0.6 22.7
2017-Dec-07 11:00N 34°24' W 066°21'0 0.0 22.7
2017-Dec-07 10:45N 34°24' W 066°21'0 0.0 22.8
2017-Dec-07 10:30N 34°24' W 066°21'1 3.1 22.8
2017-Dec-07 10:15N 34°23' W 066°22'1 0.6 22.8
2017-Dec-07 09:15N 34°24' W 066°22'1 4.0 22.7
2017-Dec-07 09:00N 34°24' W 066°23'0 0.0 22.7
2017-Dec-07 07:30N 34°24' W 066°23'415.8 22.8
2017-Dec-07 07:15N 34°24' W 066°28'0 0.0 22.8
2017-Dec-07 03:00N 34°24' W 066°28'1 0.8 22.8
2017-Dec-07 02:00N 34°25' W 066°28'0 0.0 22.8
2017-Dec-07 01:15N 34°25' W 066°28'0 0.0 22.8
2017-Dec-07 00:30N 34°25' W 066°28'0 0.0 22.8
2017-Dec-07 00:15N 34°25' W 066°28'0 1.0 22.8
2017-Dec-06 23:45N 34°25' W 066°29'2 7.6 22.8
2017-Dec-06 23:30N 34°23' W 066°31'0 0.0 22.8
2017-Dec-06 22:15N 34°23' W 066°31'1 4.6 22.8
2017-Dec-06 22:00N 34°23' W 066°32'0 0.0 22.8
2017-Dec-06 21:45N 34°23' W 066°32'1 1.2 22.8
2017-Dec-06 20:45N 34°22' W 066°33'0 0.0 22.8
2017-Dec-06 20:30N 34°22' W 066°33'0 0.0 22.8
2017-Dec-06 19:00N 34°22' W 066°33'1 0.3 22.9
2017-Dec-06 15:45N 34°22' W 066°34'1 3.1 22.9
2017-Dec-06 15:30N 34°22' W 066°35'0 0.0 22.9
2017-Dec-06 14:45N 34°22' W 066°35'1 1.5 22.9
2017-Dec-06 14:00N 34°22' W 066°34'1 3.1 22.8
2017-Dec-06 13:45N 34°22' W 066°34'0 0.0 22.8
2017-Dec-06 13:00N 34°22' W 066°34'0 1.0 22.7
2017-Dec-06 12:30N 34°22' W 066°35'1 4.6 22.8
2017-Dec-06 12:15N 34°21' W 066°36'0 0.0 22.8
2017-Dec-06 12:00N 34°21' W 066°36'0 0.0 22.8
2017-Dec-06 11:30N 34°21' W 066°36'1 0.8 22.8
2017-Dec-06 10:45N 34°22' W 066°36'0 2.0 22.8
2017-Dec-06 10:30N 34°22' W 066°37'0 0.0 22.9
2017-Dec-06 10:00N 34°22' W 066°37'0 2.0 22.9
2017-Dec-06 09:45N 34°22' W 066°37'1 2.4 22.9
2017-Dec-06 09:15N 34°23' W 066°37'0 0.0 22.9
2017-Dec-06 08:15N 34°23' W 066°37'0 0.0 22.9
2017-Dec-06 08:00N 34°23' W 066°37'1 4.6 22.9
2017-Dec-06 07:45N 34°22' W 066°38'0 0.0 22.9
2017-Dec-06 07:30N 34°22' W 066°38'2 0.5 22.9
2017-Dec-06 03:15N 34°22' W 066°41'0 0.0 22.9
2017-Dec-06 02:30N 34°22' W 066°41'1 3.1 22.9
2017-Dec-06 02:15N 34°23' W 066°40'0 0.0 22.9
2017-Dec-06 01:45N 34°23' W 066°40'0 0.0 22.9
2017-Dec-06 01:30N 34°23' W 066°40'1 0.8 22.9
2017-Dec-06 00:45N 34°22' W 066°40'1 3.1 22.9
2017-Dec-06 00:30N 34°23' W 066°41'0 0.0 22.9
2017-Dec-06 00:15N 34°23' W 066°41'0 0.0 22.9
2017-Dec-06 00:00N 34°23' W 066°41'1 2.4 22.9
2017-Dec-05 23:45N 34°23' W 066°41'0 0.0 22.9
2017-Dec-05 22:45N 34°23' W 066°41'0 0.0 22.9
2017-Dec-05 22:30N 34°23' W 066°41'1 4.0 22.9
2017-Dec-05 22:15N 34°23' W 066°40'0 0.0 22.9
2017-Dec-05 22:00N 34°23' W 066°40'0 0.0 22.9
2017-Dec-05 21:00N 34°23' W 066°40'2 6.2 22.9
2017-Dec-05 20:45N 34°25' W 066°41'0 0.3 22.9
2017-Dec-05 19:15N 34°25' W 066°40'312.6 22.9
2017-Dec-05 19:00N 34°28' W 066°41'1 0.3 22.9
2017-Dec-05 16:00N 34°28' W 066°42'0 0.0 22.9
2017-Dec-05 15:00N 34°28' W 066°42'0 0.0 22.9
2017-Dec-05 14:30N 34°28' W 066°42'0 0.0 22.9
2017-Dec-05 14:00N 34°28' W 066°42'1 1.6 22.9
2017-Dec-05 13:30N 34°29' W 066°41'0 0.0 22.9
2017-Dec-05 13:15N 34°29' W 066°41'0 0.0 22.9
2017-Dec-05 12:45N 34°29' W 066°41'1 5.2 22.9
2017-Dec-05 12:30N 34°30' W 066°42'0 0.0 22.9
2017-Dec-05 12:15N 34°30' W 066°42'0 0.0 22.9
2017-Dec-05 11:15N 34°30' W 066°42'0 0.0 22.9
2017-Dec-05 11:00N 34°30' W 066°42'0 2.0 22.9
2017-Dec-05 10:45N 34°30' W 066°43'0 0.0 22.9
2017-Dec-05 10:30N 34°30' W 066°43'1 4.8 22.9
2017-Dec-05 10:15N 34°31' W 066°43'0 0.7 22.9
2017-Dec-05 09:30N 34°31' W 066°42'0 0.0 22.9
2017-Dec-05 09:15N 34°31' W 066°42'0 0.0 22.9
2017-Dec-05 08:45N 34°31' W 066°42'1 4.6 22.9
2017-Dec-05 08:30N 34°32' W 066°43'0 0.0 22.9
2017-Dec-05 08:00N 34°32' W 066°43'311.3 22.9
2017-Dec-05 07:45N 34°34' W 066°45'1 0.2 22.9
2017-Dec-05 02:45N 34°35' W 066°44'1 0.8 22.9
2017-Dec-05 02:00N 34°35' W 066°44'0 0.0 22.9
2017-Dec-05 01:45N 34°35' W 066°44'0 0.0 22.9
2017-Dec-05 01:15N 34°35' W 066°44'1 4.8 23.0
2017-Dec-05 01:00N 34°37' W 066°44'0 0.0 23.0
2017-Dec-05 00:45N 34°37' W 066°44'0 0.0 23.0
2017-Dec-05 00:30N 34°37' W 066°44'1 2.4 23.0
2017-Dec-05 00:00N 34°38' W 066°44'0 0.0 23.0
2017-Dec-04 23:30N 34°38' W 066°44'0 2.0 23.0
2017-Dec-04 23:15N 34°38' W 066°44'0 2.0 23.0
2017-Dec-04 23:00N 34°38' W 066°44'0 2.0 23.0
2017-Dec-04 22:45N 34°38' W 066°44'1 4.6 23.0
2017-Dec-04 22:30N 34°38' W 066°45'1 3.1 23.0
2017-Dec-04 22:15N 34°39' W 066°44'0 0.0 23.0
2017-Dec-04 21:30N 34°39' W 066°44'0 0.0 23.0
2017-Dec-04 21:15N 34°39' W 066°44'0 0.0 23.0
2017-Dec-04 21:00N 34°39' W 066°44'2 1.5 23.0
2017-Dec-04 19:30N 34°40' W 066°47'312.2 22.9
2017-Dec-04 19:15N 34°43' W 066°47'0 0.0 22.9
2017-Dec-04 17:45N 34°43' W 066°47'1 0.3 22.8
2017-Dec-04 15:30N 34°44' W 066°47'0 0.0 22.8
2017-Dec-04 15:15N 34°44' W 066°47'0 0.0 22.8
2017-Dec-04 14:45N 34°44' W 066°47'0 0.0 22.8
2017-Dec-04 14:30N 34°44' W 066°47'2 2.1 22.8
2017-Dec-04 13:45N 34°45' W 066°48'1 1.0 22.7
2017-Dec-04 13:00N 34°46' W 066°47'0 0.0 22.8
2017-Dec-04 12:45N 34°46' W 066°47'1 5.2 22.8
2017-Dec-04 12:30N 34°47' W 066°48'0 0.0 22.8
2017-Dec-04 11:45N 34°47' W 066°48'0 0.0 22.8
2017-Dec-04 11:30N 34°47' W 066°48'1 2.0 22.8
2017-Dec-04 11:00N 34°47' W 066°49'1 5.2 22.8
2017-Dec-04 10:45N 34°48' W 066°50'1 1.0 22.8
2017-Dec-04 10:00N 34°49' W 066°50'0 0.0 22.8
2017-Dec-04 09:45N 34°49' W 066°50'2 8.2 22.8
2017-Dec-04 09:30N 34°50' W 066°52'2 9.3 22.8
2017-Dec-04 09:15N 34°49' W 066°50'2 9.3 22.8
2017-Dec-04 09:00N 34°50' W 066°52'4 3.9 22.8
2017-Dec-04 08:00N 34°53' W 066°55'0 0.0 22.8
2017-Dec-04 07:45N 34°53' W 066°55'0 0.0 22.8
2017-Dec-04 03:00N 34°53' W 066°55'1 1.6 22.9
2017-Dec-04 02:30N 34°54' W 066°55'0 0.0 22.9
2017-Dec-04 02:15N 34°54' W 066°55'0 0.0 22.9
2017-Dec-04 01:30N 34°54' W 066°55'0 0.0 22.8
2017-Dec-04 01:15N 34°54' W 066°55'0 0.0 22.8
2017-Dec-04 00:45N 34°54' W 066°55'0 0.0 22.8
2017-Dec-04 00:30N 34°54' W 066°55'0 0.0 22.8
2017-Dec-04 00:15N 34°54' W 066°55'1 5.2 22.8
2017-Dec-04 00:00N 34°55' W 066°56'1 5.2 22.8
2017-Dec-03 23:45N 34°54' W 066°55'0 0.0 22.9
2017-Dec-03 23:15N 34°54' W 066°55'0 0.7 22.9
2017-Dec-03 22:30N 34°54' W 066°56'0 0.0 22.9
2017-Dec-03 22:00N 34°54' W 066°56'0 0.0 22.9
2017-Dec-03 21:45N 34°54' W 066°56'1 1.2 22.9
2017-Dec-03 21:15N 34°55' W 066°56'0 0.0 22.9
2017-Dec-03 19:45N 34°55' W 066°56'1 5.2 22.9
2017-Dec-03 19:30N 34°56' W 066°56'0 0.0 22.9
2017-Dec-03 18:00N 34°56' W 066°56'2 7.6 22.9
2017-Dec-03 17:45N 34°57' W 066°58'1 0.4 22.9
2017-Dec-03 15:45N 34°56' W 066°58'2 2.1 22.8
2017-Dec-03 15:00N 34°57' W 066°59'0 0.0 22.8
2017-Dec-03 14:15N 34°57' W 066°59'1 2.4 22.8
2017-Dec-03 14:00N 34°58' W 066°59'0 0.0 22.8
2017-Dec-03 13:30N 34°58' W 066°59'0 0.0 22.8
2017-Dec-03 13:15N 34°58' W 066°59'0 0.0 22.8
2017-Dec-03 13:00N 34°58' W 066°59'1 3.1 22.8
2017-Dec-03 12:45N 34°58' W 067°00'0 0.0 22.8
2017-Dec-03 12:30N 34°58' W 067°00'0 0.0 22.8
2017-Dec-03 12:15N 34°58' W 067°00'0 0.0 22.8
2017-Dec-03 12:00N 34°58' W 067°00'0 0.0 22.8
2017-Dec-03 11:30N 34°58' W 067°00'0 2.0 22.8
2017-Dec-03 11:15N 34°58' W 067°01'1 3.1 22.8
2017-Dec-03 11:00N 34°59' W 067°01'0 0.0 22.8
2017-Dec-03 10:30N 34°59' W 067°01'0 0.0 22.8
2017-Dec-03 10:15N 34°59' W 067°01'0 0.0 22.8
2017-Dec-03 10:00N 34°59' W 067°01'1 3.1 22.8
2017-Dec-03 09:45N 34°59' W 067°02'0 0.0 22.8
2017-Dec-03 09:30N 34°59' W 067°02'1 0.6 22.8
2017-Dec-03 08:15N 35°00' W 067°02'0 2.0 22.8
2017-Dec-03 08:00N 35°00' W 067°03'0 0.0 22.8
2017-Dec-03 02:45N 35°00' W 067°03'0 0.0 22.9
2017-Dec-03 02:30N 35°00' W 067°03'0 0.7 22.9
2017-Dec-03 01:45N 35°00' W 067°04'1 0.8 22.9
2017-Dec-03 01:00N 35°01' W 067°04'0 0.0 22.9
2017-Dec-03 00:30N 35°01' W 067°04'0 0.0 22.9
2017-Dec-03 00:15N 35°01' W 067°04'0 0.0 22.9
2017-Dec-03 00:00N 35°01' W 067°04'0 0.0 22.9
2017-Dec-02 23:45N 35°01' W 067°04'1 0.6 22.9
2017-Dec-02 22:45N 35°01' W 067°04'0 0.0 22.8
2017-Dec-02 22:30N 35°01' W 067°04'0 0.0 22.8
2017-Dec-02 22:15N 35°01' W 067°04'0 0.0 22.8
2017-Dec-02 22:00N 35°01' W 067°04'1 0.9 22.8
2017-Dec-02 20:30N 35°02' W 067°04'0 0.0 22.9
2017-Dec-02 20:15N 35°02' W 067°04'1 1.6 22.9
2017-Dec-02 19:45N 35°03' W 067°05'0 0.0 22.9
2017-Dec-02 18:15N 35°03' W 067°05'2 9.2 22.9
2017-Dec-02 18:00N 35°04' W 067°07'0 0.0 22.9
2017-Dec-02 16:00N 35°04' W 067°07'0 0.0 22.9
2017-Dec-02 15:30N 35°04' W 067°07'1 3.9 22.9
2017-Dec-02 15:15N 35°04' W 067°08'0 0.0 22.9
2017-Dec-02 14:30N 35°04' W 067°08'0 0.0 22.9
2017-Dec-02 14:15N 35°04' W 067°08'0 1.0 22.9
2017-Dec-02 13:45N 35°04' W 067°09'0 0.0 22.9
2017-Dec-02 13:30N 35°04' W 067°09'0 1.0 22.9
2017-Dec-02 13:00N 35°04' W 067°10'0 0.0 22.9
2017-Dec-02 12:45N 35°04' W 067°10'0 0.0 22.9
2017-Dec-02 12:30N 35°04' W 067°10'1 3.1 22.9
2017-Dec-02 12:15N 35°05' W 067°10'0 0.0 22.9
2017-Dec-02 11:30N 35°05' W 067°10'0 0.0 22.8
2017-Dec-02 11:15N 35°05' W 067°10'1 1.6 22.8
2017-Dec-02 10:45N 35°05' W 067°11'0 0.0 22.8
2017-Dec-02 10:15N 35°05' W 067°11'1 5.2 22.8
2017-Dec-02 10:00N 35°07' W 067°10'1 0.7 22.8
2017-Dec-02 08:30N 35°07' W 067°11'2 9.6 22.9
2017-Dec-02 08:15N 35°09' W 067°11'0 0.0 22.9
2017-Dec-02 06:45N 35°09' W 067°11'2 0.6 23.1
2017-Dec-02 03:00N 35°10' W 067°14'0 0.0 22.9
2017-Dec-02 02:15N 35°10' W 067°14'1 2.4 22.9
2017-Dec-02 02:00N 35°11' W 067°14'0 0.0 22.9
2017-Dec-02 01:30N 35°11' W 067°14'1 3.1 23.1
2017-Dec-02 01:15N 35°11' W 067°14'1 1.2 23.1
2017-Dec-02 00:45N 35°12' W 067°14'1 3.1 23.1
2017-Dec-02 00:30N 35°11' W 067°14'1 5.2 23.1
2017-Dec-02 00:15N 35°13' W 067°14'0 0.0 23.1
2017-Dec-02 00:00N 35°13' W 067°14'0 0.0 23.1
2017-Dec-01 23:45N 35°13' W 067°14'0 0.0 23.1
2017-Dec-01 23:00N 35°13' W 067°14'0 0.0 23.0
2017-Dec-01 22:45N 35°13' W 067°14'0 0.0 23.0
2017-Dec-01 22:30N 35°13' W 067°14'1 5.2 23.0
2017-Dec-01 22:15N 35°14' W 067°14'0 0.5 23.1
2017-Dec-01 21:15N 35°14' W 067°14'0 0.0 23.1
2017-Dec-01 20:45N 35°14' W 067°14'1 1.0 23.1
2017-Dec-01 20:00N 35°13' W 067°15'1 4.8 23.1
2017-Dec-01 19:45N 35°14' W 067°15'0 0.0 23.0
2017-Dec-01 18:15N 35°14' W 067°15'0 0.0 23.1
2017-Dec-01 15:45N 35°14' W 067°15'   22.9

Dump ship's entire track history